Aérodrome :
LOGIN :

S'inscrire | Disclaimer

   EN    FR    IT 

 










Légende :    VFR   VFR Marginal   IFR   IFR Intensif   IFR Très Intensif
Visi : 
Plafond : 
>= 8 km
>= 3000ft
5 à 8 km
1000 à 3000 ft
1500m à 5 km
500 à 1000 ft
800 à 1500m
200 à 500 ft
< 800m
< 200 ft
Symboles :   Orages  Brouillard  Fortes neiges  Fortes précipitations  Vent > 20 kt
SIGMETs :   Divers  Orages  Givrage  Turbulence  Onde Orograph.  Cendres Volcan.






- Altitude de l'aérodrome : 1058 ft
- Code IATA : SCN


EDDR - Saarbrücken

DERNIER METAR :
  • 190450Z 29004KT 260V320 8000 -RA FEW003 SCT010 BKN020 05/04 Q1015 TEMPO BKN006

METARs EXPIRÉS :
  • 190420Z 27004KT 7000 -DZ FEW003 BKN005 BKN018 05/05 Q1014
  • 190350Z 27005KT 4000 -DZ BR FEW003 BKN005 05/05 Q1014
  • 190320Z 27005KT 7000 -RA FEW003 BKN005 05/05 Q1014
  • 190250Z 25006KT 9000 FEW003 BKN005 05/04 Q1014
  • 190220Z 24008KT 210V270 9000 -RA SCT004 BKN007 05/04 Q1014

TAF TAF EDDR
Valide du 19 à 00h jusqu'au 20 à 00h UTC


182300Z 1900/1924 22009KT 8000 OVC006
TEMPO 1900/1909 2500 -DZ BR OVC004
BECMG 1904/1906 24004KT
BECMG 1908/1911 SCT006 BKN012
BECMG 1911/1914 SCT012



MET'MAP, la Météo Aéronautique d'un coup d'oeil ! - Copyright ORBIFLY Décembre 2007 - Disclaimer

ORBIFLY MET'MAP TEAM :

Programmation & Développement : Alexandra Zaïnal
Conception & Développement : Baudouin d'Aumeries
Co-Programmation & Développement : Marc-Olivier Méhu
Soutien technique & logistique : Manuel Goepfert

Contact : metmap@orbifly.com




SOURCES & CREDITS :

   NOAA